This is the latest recevied weather packets stored in our database for station/object E25WOP-13. If no packets are shown the sender has not sent any weather packets the latest 10 day(s).
| Time | Temp. | Humidity | Pressure | Rain* | Wind** | Luminosity | Snow |
|---|---|---|---|---|---|---|---|
| 1777458018 | -17.78° C | - | 1004.4 hPa | 0 mm | - | - | - |
| 1777457418 | -17.78° C | - | 1004.4 hPa | 0 mm | - | - | - |
| 1777456818 | -17.78° C | - | 1004.4 hPa | 0 mm | - | - | - |
| 1777456218 | -17.78° C | - | 1004.3 hPa | 0 mm | - | - | - |
| 1777455617 | -17.78° C | - | 1004.3 hPa | 0 mm | - | - | - |
| 1777455018 | -17.78° C | - | 1004.5 hPa | 0 mm | - | - | - |
| 1777454417 | 32.78° C | 67% | 1004.3 hPa | 0 mm | - | 184 W/m² | - |
| 1777453817 | 33.33° C | 67% | 1004.5 hPa | 0 mm | - | 182 W/m² | - |
| 1777453217 | 33.33° C | 67% | 1004.7 hPa | 0 mm | - | 190 W/m² | - |
| 1777452617 | 33.33° C | 65% | 1004.7 hPa | 0 mm | - | 239 W/m² | - |
| 1777452017 | 33.89° C | 65% | 1004.6 hPa | 0 mm | - | 268 W/m² | - |
| 1777451417 | 33.33° C | 66% | 1004.7 hPa | 0 mm | - | 289 W/m² | - |
| 1777450817 | 34.44° C | 57% | 1005 hPa | 0 mm | - | 314 W/m² | - |
| 1777450217 | 33.89° C | 57% | 1004.9 hPa | 0 mm | - | 339 W/m² | - |
| 1777449617 | 33.89° C | 55% | 1004.9 hPa | 0 mm | - | 364 W/m² | - |
| 1777449017 | 33.89° C | 56% | 1005.1 hPa | 0 mm | - | 398 W/m² | - |
| 1777448417 | 34.44° C | 58% | 1005.4 hPa | 0 mm | - | 417 W/m² | - |
| 1777447817 | 33.89° C | 60% | 1005.3 hPa | 0 mm | - | 471 W/m² | - |
| 1777447217 | 33.89° C | 59% | 1005.2 hPa | 0 mm | - | 474 W/m² | - |
| 1777446617 | 34.44° C | 58% | 1005.2 hPa | 0 mm | - | 498 W/m² | - |
| 1777446017 | 33.89° C | 59% | 1005.5 hPa | 0 mm | - | 721 W/m² | - |
| 1777445417 | 33.89° C | 58% | 1005.3 hPa | 0 mm | - | 967 W/m² | - |
| 1777444817 | 34.44° C | 57% | 1005.6 hPa | 0 mm | - | 1137 W/m² | - |
| 1777444217 | 34.44° C | 57% | 1005.7 hPa | 0 mm | - | 1136 W/m² | - |
| 1777443617 | 33.89° C | 57% | 1006.1 hPa | 0 mm | - | 1136 W/m² | - |
* Rain latest hour (hover to see other rain measurements)
** Current wind speed in m/s (hover to see current wind gust speed)